sensor_id;sensor_type;location;lat;lon;timestamp;pressure;altitude;pressure_sealevel;temperature;humidity
34205;BME280;20471;49.680;20.074;2023-08-21T02:49:41;97777.06;;;17.39;79.35
34205;BME280;20471;49.680;20.074;2023-08-21T02:52:08;97777.76;;;17.38;79.26
34205;BME280;20471;49.680;20.074;2023-08-21T02:54:36;97776.51;;;17.38;79.19
34205;BME280;20471;49.680;20.074;2023-08-21T02:57:04;97772.62;;;17.37;79.28
34205;BME280;20471;49.680;20.074;2023-08-21T02:59:32;97770.29;;;17.36;79.06
34205;BME280;20471;49.680;20.074;2023-08-21T03:01:59;97772.51;;;17.34;79.20
34205;BME280;20471;49.680;20.074;2023-08-21T03:04:27;97776.88;;;17.32;79.10
34205;BME280;20471;49.680;20.074;2023-08-21T03:06:54;97775.30;;;17.29;79.31
34205;BME280;20471;49.680;20.074;2023-08-21T03:09:22;97777.66;;;17.27;79.27
34205;BME280;20471;49.680;20.074;2023-08-21T03:11:50;97779.50;;;17.26;79.13
34205;BME280;20471;49.680;20.074;2023-08-21T03:14:17;97777.47;;;17.25;79.21
34205;BME280;20471;49.680;20.074;2023-08-21T03:16:45;97774.66;;;17.21;79.15
34205;BME280;20471;49.680;20.074;2023-08-21T03:19:13;97775.94;;;17.16;79.39
34205;BME280;20471;49.680;20.074;2023-08-21T03:21:40;97775.04;;;17.12;79.46
34205;BME280;20471;49.680;20.074;2023-08-21T03:24:08;97778.06;;;17.10;79.61
34205;BME280;20471;49.680;20.074;2023-08-21T03:26:36;97780.05;;;17.11;79.73
34205;BME280;20471;49.680;20.074;2023-08-21T03:29:03;97780.71;;;17.12;79.65
34205;BME280;20471;49.680;20.074;2023-08-21T03:31:31;97781.54;;;17.12;79.86
34205;BME280;20471;49.680;20.074;2023-08-21T03:33:59;97781.49;;;17.10;79.70
34205;BME280;20471;49.680;20.074;2023-08-21T03:36:26;97784.34;;;17.08;79.80
34205;BME280;20471;49.680;20.074;2023-08-21T03:38:59;97780.69;;;17.08;79.84
34205;BME280;20471;49.680;20.074;2023-08-21T03:41:27;97782.77;;;17.09;79.79
34205;BME280;20471;49.680;20.074;2023-08-21T03:43:55;97780.20;;;17.08;79.75
34205;BME280;20471;49.680;20.074;2023-08-21T03:46:22;97782.16;;;17.08;79.80
34205;BME280;20471;49.680;20.074;2023-08-21T03:48:51;97779.42;;;17.07;79.72
34205;BME280;20471;49.680;20.074;2023-08-21T03:51:19;97780.01;;;17.07;79.80
34205;BME280;20471;49.680;20.074;2023-08-21T03:53:46;97776.36;;;17.05;79.97
34205;BME280;20471;49.680;20.074;2023-08-21T03:56:14;97776.06;;;17.00;79.90
34205;BME280;20471;49.680;20.074;2023-08-21T03:58:42;97772.18;;;16.99;80.11
34205;BME280;20471;49.680;20.074;2023-08-21T04:01:09;97771.04;;;17.00;80.15
34205;BME280;20471;49.680;20.074;2023-08-21T04:03:37;97770.49;;;17.00;79.99
34205;BME280;20471;49.680;20.074;2023-08-21T04:06:05;97771.73;;;16.99;80.18
34205;BME280;20471;49.680;20.074;2023-08-21T04:08:33;97769.81;;;16.96;80.14
34205;BME280;20471;49.680;20.074;2023-08-21T04:11:01;97767.67;;;16.89;80.21
34205;BME280;20471;49.680;20.074;2023-08-21T04:13:29;97768.48;;;16.86;80.44
34205;BME280;20471;49.680;20.074;2023-08-21T04:15:56;97766.80;;;16.81;81.24
34205;BME280;20471;49.680;20.074;2023-08-21T04:18:24;97770.15;;;16.76;81.11
34205;BME280;20471;49.680;20.074;2023-08-21T04:20:52;97771.64;;;16.77;81.17
34205;BME280;20471;49.680;20.074;2023-08-21T04:23:19;97773.88;;;16.80;81.18
34205;BME280;20471;49.680;20.074;2023-08-21T04:25:47;97773.91;;;16.82;81.39
34205;BME280;20471;49.680;20.074;2023-08-21T04:28:15;97773.42;;;16.85;81.60
34205;BME280;20471;49.680;20.074;2023-08-21T04:30:42;97775.80;;;16.89;81.54
34205;BME280;20471;49.680;20.074;2023-08-21T04:33:10;97777.17;;;16.92;81.44
34205;BME280;20471;49.680;20.074;2023-08-21T04:35:38;97779.67;;;16.95;81.37
34205;BME280;20471;49.680;20.074;2023-08-21T04:38:06;97780.12;;;16.99;81.38
34205;BME280;20471;49.680;20.074;2023-08-21T04:40:34;97777.23;;;17.01;81.44
34205;BME280;20471;49.680;20.074;2023-08-21T04:43:02;97782.15;;;17.03;81.50
34205;BME280;20471;49.680;20.074;2023-08-21T04:45:30;97783.73;;;17.05;81.57
34205;BME280;20471;49.680;20.074;2023-08-21T04:47:59;97783.61;;;17.07;81.64
34205;BME280;20471;49.680;20.074;2023-08-21T04:50:26;97784.61;;;17.10;81.75
34205;BME280;20471;49.680;20.074;2023-08-21T04:52:54;97782.61;;;17.13;81.72
34205;BME280;20471;49.680;20.074;2023-08-21T04:55:23;97781.59;;;17.16;81.73
34205;BME280;20471;49.680;20.074;2023-08-21T04:57:50;97782.16;;;17.19;81.99
34205;BME280;20471;49.680;20.074;2023-08-21T05:00:18;97780.46;;;17.22;81.86
34205;BME280;20471;49.680;20.074;2023-08-21T05:02:46;97781.67;;;17.25;81.88
34205;BME280;20471;49.680;20.074;2023-08-21T05:05:14;97786.78;;;17.28;82.01
34205;BME280;20471;49.680;20.074;2023-08-21T05:07:42;97786.47;;;17.31;81.92
34205;BME280;20471;49.680;20.074;2023-08-21T05:10:10;97789.11;;;17.35;82.05
34205;BME280;20471;49.680;20.074;2023-08-21T05:12:37;97791.81;;;17.40;82.10
34205;BME280;20471;49.680;20.074;2023-08-21T05:15:05;97791.66;;;17.44;82.15
34205;BME280;20471;49.680;20.074;2023-08-21T05:17:33;97790.28;;;17.48;82.30
34205;BME280;20471;49.680;20.074;2023-08-21T05:20:01;97792.86;;;17.53;82.24
34205;BME280;20471;49.680;20.074;2023-08-21T05:22:29;97793.03;;;17.59;82.37
34205;BME280;20471;49.680;20.074;2023-08-21T05:24:57;97792.16;;;17.65;82.56
34205;BME280;20471;49.680;20.074;2023-08-21T05:27:25;97790.88;;;17.69;82.76
34205;BME280;20471;49.680;20.074;2023-08-21T05:29:52;97785.67;;;17.75;82.79
34205;BME280;20471;49.680;20.074;2023-08-21T05:32:20;97779.04;;;17.79;83.01
34205;BME280;20471;49.680;20.074;2023-08-21T05:34:48;97782.04;;;17.85;83.09
34205;BME280;20471;49.680;20.074;2023-08-21T05:37:15;97784.67;;;17.91;82.99
34205;BME280;20471;49.680;20.074;2023-08-21T05:39:43;97786.86;;;17.96;83.22
34205;BME280;20471;49.680;20.074;2023-08-21T05:42:11;97787.81;;;18.03;83.38
34205;BME280;20471;49.680;20.074;2023-08-21T05:44:38;97788.20;;;18.09;83.57
34205;BME280;20471;49.680;20.074;2023-08-21T05:47:06;97785.72;;;18.15;83.60
34205;BME280;20471;49.680;20.074;2023-08-21T05:49:34;97785.00;;;18.22;83.85
34205;BME280;20471;49.680;20.074;2023-08-21T05:52:02;97786.08;;;18.28;84.13
34205;BME280;20471;49.680;20.074;2023-08-21T05:54:29;97784.14;;;18.35;84.09
34205;BME280;20471;49.680;20.074;2023-08-21T05:56:58;97785.61;;;18.43;84.12
34205;BME280;20471;49.680;20.074;2023-08-21T05:59:27;97788.14;;;18.51;84.30
34205;BME280;20471;49.680;20.074;2023-08-21T06:01:55;97782.48;;;18.60;84.45
34205;BME280;20471;49.680;20.074;2023-08-21T06:04:24;97774.64;;;18.69;84.66
34205;BME280;20471;49.680;20.074;2023-08-21T06:06:53;97770.95;;;18.77;84.60
34205;BME280;20471;49.680;20.074;2023-08-21T06:09:21;97768.42;;;18.85;84.78
34205;BME280;20471;49.680;20.074;2023-08-21T06:11:48;97771.05;;;18.94;84.89
34205;BME280;20471;49.680;20.074;2023-08-21T06:14:16;97769.40;;;19.02;85.15
34205;BME280;20471;49.680;20.074;2023-08-21T06:16:44;97763.44;;;19.12;84.80
34205;BME280;20471;49.680;20.074;2023-08-21T06:19:12;97758.55;;;19.22;84.89
34205;BME280;20471;49.680;20.074;2023-08-21T06:21:39;97761.59;;;19.30;85.00
34205;BME280;20471;49.680;20.074;2023-08-21T06:24:07;97767.80;;;19.39;85.04
34205;BME280;20471;49.680;20.074;2023-08-21T06:26:34;97770.37;;;19.47;84.90
34205;BME280;20471;49.680;20.074;2023-08-21T06:29:02;97767.58;;;19.57;84.90
34205;BME280;20471;49.680;20.074;2023-08-21T06:31:30;97769.13;;;19.65;84.76
34205;BME280;20471;49.680;20.074;2023-08-21T06:33:58;97771.18;;;19.75;84.73
34205;BME280;20471;49.680;20.074;2023-08-21T06:36:26;97767.48;;;19.85;84.50
34205;BME280;20471;49.680;20.074;2023-08-21T06:38:55;97769.46;;;19.93;84.51
34205;BME280;20471;49.680;20.074;2023-08-21T06:41:23;97768.11;;;20.03;84.64
34205;BME280;20471;49.680;20.074;2023-08-21T06:43:51;97767.98;;;20.15;84.92
34205;BME280;20471;49.680;20.074;2023-08-21T06:46:19;97769.97;;;20.25;84.94
34205;BME280;20471;49.680;20.074;2023-08-21T06:48:46;97770.77;;;20.35;84.82
34205;BME280;20471;49.680;20.074;2023-08-21T06:51:16;97768.15;;;20.46;84.80
34205;BME280;20471;49.680;20.074;2023-08-21T06:53:44;97764.96;;;20.56;84.64
34205;BME280;20471;49.680;20.074;2023-08-21T06:56:13;97763.80;;;20.66;84.47
34205;BME280;20471;49.680;20.074;2023-08-21T06:58:40;97763.14;;;20.77;84.44
34205;BME280;20471;49.680;20.074;2023-08-21T07:01:08;97764.72;;;20.89;84.28
34205;BME280;20471;49.680;20.074;2023-08-21T07:03:36;97766.91;;;21.01;84.26
34205;BME280;20471;49.680;20.074;2023-08-21T07:06:03;97766.47;;;21.15;84.15
34205;BME280;20471;49.680;20.074;2023-08-21T07:08:31;97765.42;;;21.29;83.89
34205;BME280;20471;49.680;20.074;2023-08-21T07:11:02;97760.23;;;21.43;83.46
34205;BME280;20471;49.680;20.074;2023-08-21T07:13:30;97759.83;;;21.57;83.27
34205;BME280;20471;49.680;20.074;2023-08-21T07:15:58;97756.69;;;21.78;83.43
34205;BME280;20471;49.680;20.074;2023-08-21T07:18:32;97755.27;;;21.99;82.90
34205;BME280;20471;49.680;20.074;2023-08-21T07:21:03;97755.76;;;22.19;82.80
34205;BME280;20471;49.680;20.074;2023-08-21T07:23:31;97758.90;;;22.40;82.70
34205;BME280;20471;49.680;20.074;2023-08-21T07:26:01;97760.46;;;22.54;82.04
34205;BME280;20471;49.680;20.074;2023-08-21T07:28:31;97759.60;;;22.67;81.55
34205;BME280;20471;49.680;20.074;2023-08-21T07:30:58;97762.70;;;22.80;80.83
34205;BME280;20471;49.680;20.074;2023-08-21T07:33:27;97764.45;;;22.90;80.04
34205;BME280;20471;49.680;20.074;2023-08-21T07:35:58;97763.46;;;23.01;79.46
34205;BME280;20471;49.680;20.074;2023-08-21T07:38:26;97764.77;;;23.11;78.83
34205;BME280;20471;49.680;20.074;2023-08-21T07:41:10;97768.19;;;23.21;78.52
34205;BME280;20471;49.680;20.074;2023-08-21T07:43:43;97769.83;;;23.32;78.26
34205;BME280;20471;49.680;20.074;2023-08-21T07:46:12;97772.85;;;23.44;78.13
34205;BME280;20471;49.680;20.074;2023-08-21T07:48:42;97771.43;;;23.54;77.92
34205;BME280;20471;49.680;20.074;2023-08-21T07:51:10;97767.89;;;23.65;77.91
34205;BME280;20471;49.680;20.074;2023-08-21T07:53:38;97772.95;;;23.75;77.73
34205;BME280;20471;49.680;20.074;2023-08-21T07:56:07;97771.52;;;23.81;77.55
34205;BME280;20471;49.680;20.074;2023-08-21T07:58:34;97775.77;;;23.87;77.14
34205;BME280;20471;49.680;20.074;2023-08-21T08:01:02;97776.70;;;23.93;77.05
34205;BME280;20471;49.680;20.074;2023-08-21T08:03:31;97777.30;;;24.01;76.75
34205;BME280;20471;49.680;20.074;2023-08-21T08:05:59;97775.31;;;24.14;76.13
34205;BME280;20471;49.680;20.074;2023-08-21T08:08:26;97774.31;;;24.24;75.80
34205;BME280;20471;49.680;20.074;2023-08-21T08:10:55;97772.27;;;24.35;75.40
34205;BME280;20471;49.680;20.074;2023-08-21T08:13:23;97769.83;;;24.47;75.69
34205;BME280;20471;49.680;20.074;2023-08-21T08:15:51;97771.01;;;24.66;75.48
34205;BME280;20471;49.680;20.074;2023-08-21T08:18:18;97773.45;;;24.95;74.92
34205;BME280;20471;49.680;20.074;2023-08-21T08:20:46;97773.98;;;25.27;73.98
34205;BME280;20471;49.680;20.074;2023-08-21T08:23:14;97774.93;;;25.49;73.32
34205;BME280;20471;49.680;20.074;2023-08-21T08:25:41;97775.85;;;25.67;72.51
34205;BME280;20471;49.680;20.074;2023-08-21T08:28:09;97774.39;;;25.93;72.48
34205;BME280;20471;49.680;20.074;2023-08-21T08:30:37;97776.59;;;26.28;72.46
34205;BME280;20471;49.680;20.074;2023-08-21T08:33:04;97777.17;;;26.57;72.10
34205;BME280;20471;49.680;20.074;2023-08-21T08:35:32;97775.36;;;26.79;71.75
34205;BME280;20471;49.680;20.074;2023-08-21T08:38:00;97773.95;;;27.05;70.77
34205;BME280;20471;49.680;20.074;2023-08-21T08:40:28;97778.63;;;27.23;69.83
34205;BME280;20471;49.680;20.074;2023-08-21T08:42:56;97774.46;;;27.50;69.87
34205;BME280;20471;49.680;20.074;2023-08-21T08:45:29;97773.83;;;27.82;68.94
34205;BME280;20471;49.680;20.074;2023-08-21T08:48:01;97774.02;;;28.07;67.80
34205;BME280;20471;49.680;20.074;2023-08-21T08:50:30;97770.27;;;28.38;67.53
34205;BME280;20471;49.680;20.074;2023-08-21T08:53:00;97770.71;;;28.50;66.33
34205;BME280;20471;49.680;20.074;2023-08-21T08:55:28;97770.48;;;28.49;65.82
34205;BME280;20471;49.680;20.074;2023-08-21T08:57:56;97772.73;;;28.51;63.86
34205;BME280;20471;49.680;20.074;2023-08-21T09:00:23;97774.40;;;28.51;64.30
34205;BME280;20471;49.680;20.074;2023-08-21T09:02:51;97775.88;;;28.50;64.62
34205;BME280;20471;49.680;20.074;2023-08-21T09:05:19;97779.92;;;28.47;64.19
34205;BME280;20471;49.680;20.074;2023-08-21T09:08:02;97779.73;;;28.41;64.11
34205;BME280;20471;49.680;20.074;2023-08-21T09:10:30;97777.79;;;28.35;64.08
34205;BME280;20471;49.680;20.074;2023-08-21T09:12:58;97779.20;;;28.32;64.11
34205;BME280;20471;49.680;20.074;2023-08-21T09:15:28;97779.67;;;28.33;64.23
34205;BME280;20471;49.680;20.074;2023-08-21T09:17:57;97778.59;;;28.38;64.74
34205;BME280;20471;49.680;20.074;2023-08-21T09:20:24;97778.83;;;28.42;64.80
34205;BME280;20471;49.680;20.074;2023-08-21T09:22:53;97776.88;;;28.42;64.89
34205;BME280;20471;49.680;20.074;2023-08-21T09:25:23;97774.86;;;28.43;64.97
34205;BME280;20471;49.680;20.074;2023-08-21T09:27:52;97773.47;;;28.45;64.81
34205;BME280;20471;49.680;20.074;2023-08-21T09:30:20;97770.64;;;28.45;64.41
34205;BME280;20471;49.680;20.074;2023-08-21T09:32:56;97768.95;;;28.46;64.17
34205;BME280;20471;49.680;20.074;2023-08-21T09:35:26;97768.01;;;28.48;63.64
34205;BME280;20471;49.680;20.074;2023-08-21T09:37:54;97766.40;;;28.54;63.60
34205;BME280;20471;49.680;20.074;2023-08-21T09:40:22;97763.44;;;28.64;64.35
34205;BME280;20471;49.680;20.074;2023-08-21T09:42:53;97760.79;;;28.76;63.60
34205;BME280;20471;49.680;20.074;2023-08-21T09:45:22;97753.64;;;28.90;62.60
34205;BME280;20471;49.680;20.074;2023-08-21T09:47:51;97757.58;;;29.08;61.77
34205;BME280;20471;49.680;20.074;2023-08-21T09:50:21;97754.17;;;29.21;61.41
34205;BME280;20471;49.680;20.074;2023-08-21T09:52:51;97755.28;;;29.24;61.29
34205;BME280;20471;49.680;20.074;2023-08-21T09:55:18;97752.54;;;29.22;60.63
34205;BME280;20471;49.680;20.074;2023-08-21T09:57:48;97750.60;;;29.18;60.11
34205;BME280;20471;49.680;20.074;2023-08-21T10:00:32;97753.83;;;29.14;60.14
34205;BME280;20471;49.680;20.074;2023-08-21T10:03:03;97750.13;;;29.08;59.96
34205;BME280;20471;49.680;20.074;2023-08-21T10:05:32;97751.77;;;29.02;60.26
34205;BME280;20471;49.680;20.074;2023-08-21T10:08:02;97752.61;;;28.98;60.35
34205;BME280;20471;49.680;20.074;2023-08-21T10:10:32;97749.77;;;29.07;60.44
34205;BME280;20471;49.680;20.074;2023-08-21T10:13:00;97749.38;;;29.25;61.00
34205;BME280;20471;49.680;20.074;2023-08-21T10:15:30;97744.85;;;29.45;60.33
34205;BME280;20471;49.680;20.074;2023-08-21T10:18:17;97740.21;;;29.52;59.90
34205;BME280;20471;49.680;20.074;2023-08-21T10:20:46;97736.48;;;29.49;59.65
34205;BME280;20471;49.680;20.074;2023-08-21T10:23:29;97735.45;;;29.48;59.64
34205;BME280;20471;49.680;20.074;2023-08-21T10:25:59;97736.55;;;29.49;59.69
34205;BME280;20471;49.680;20.074;2023-08-21T10:33:57;97731.94;;;29.73;59.98
34205;BME280;20471;49.680;20.074;2023-08-21T10:37:02;97733.72;;;29.96;60.55
34205;BME280;20471;49.680;20.074;2023-08-21T10:39:30;97731.87;;;30.13;59.87
34205;BME280;20471;49.680;20.074;2023-08-21T10:42:08;97735.23;;;30.12;59.12
34205;BME280;20471;49.680;20.074;2023-08-21T10:47:18;97740.41;;;29.95;57.71
34205;BME280;20471;49.680;20.074;2023-08-21T10:49:54;97738.84;;;29.76;57.60
34205;BME280;20471;49.680;20.074;2023-08-21T10:52:30;97742.29;;;29.67;58.08
34205;BME280;20471;49.680;20.074;2023-08-21T10:55:00;97743.40;;;29.62;58.24
34205;BME280;20471;49.680;20.074;2023-08-21T10:57:31;97742.25;;;29.55;58.18
34205;BME280;20471;49.680;20.074;2023-08-21T11:02:28;97738.36;;;29.24;58.05
34205;BME280;20471;49.680;20.074;2023-08-21T11:04:58;97739.41;;;29.11;58.83
34205;BME280;20471;49.680;20.074;2023-08-21T11:07:27;97731.40;;;28.98;59.32
34205;BME280;20471;49.680;20.074;2023-08-21T11:09:55;97731.99;;;28.89;59.72
34205;BME280;20471;49.680;20.074;2023-08-21T11:12:24;97733.04;;;28.82;59.78
34205;BME280;20471;49.680;20.074;2023-08-21T11:14:52;97730.80;;;28.75;59.86
34205;BME280;20471;49.680;20.074;2023-08-21T11:17:20;97730.36;;;28.69;59.36
34205;BME280;20471;49.680;20.074;2023-08-21T11:19:49;97727.76;;;28.65;59.69
34205;BME280;20471;49.680;20.074;2023-08-21T11:22:18;97727.66;;;28.66;60.08
34205;BME280;20471;49.680;20.074;2023-08-21T11:24:47;97731.27;;;28.67;60.27
34205;BME280;20471;49.680;20.074;2023-08-21T11:27:19;97730.88;;;28.67;60.60
34205;BME280;20471;49.680;20.074;2023-08-21T11:29:50;97731.10;;;28.67;60.49
34205;BME280;20471;49.680;20.074;2023-08-21T11:32:20;97731.17;;;28.64;60.45
34205;BME280;20471;49.680;20.074;2023-08-21T11:34:53;97731.31;;;28.60;60.43
34205;BME280;20471;49.680;20.074;2023-08-21T11:37:25;97731.15;;;28.63;60.81
34205;BME280;20471;49.680;20.074;2023-08-21T11:39:55;97728.51;;;28.78;61.15
34205;BME280;20471;49.680;20.074;2023-08-21T11:42:31;97723.52;;;28.99;60.67
34205;BME280;20471;49.680;20.074;2023-08-21T11:45:00;97723.47;;;29.21;59.77
34205;BME280;20471;49.680;20.074;2023-08-21T11:47:33;97723.45;;;29.41;59.35
34205;BME280;20471;49.680;20.074;2023-08-21T11:50:03;97723.53;;;29.56;58.49
34205;BME280;20471;49.680;20.074;2023-08-21T11:52:32;97725.79;;;29.62;58.24
34205;BME280;20471;49.680;20.074;2023-08-21T11:54:59;97723.09;;;29.60;58.53
34205;BME280;20471;49.680;20.074;2023-08-21T11:57:27;97720.15;;;29.71;58.78
34205;BME280;20471;49.680;20.074;2023-08-21T11:59:56;97715.80;;;29.86;58.32
34205;BME280;20471;49.680;20.074;2023-08-21T12:02:26;97712.20;;;30.02;58.01
34205;BME280;20471;49.680;20.074;2023-08-21T12:05:01;97714.20;;;30.18;58.13
34205;BME280;20471;49.680;20.074;2023-08-21T12:07:29;97715.55;;;30.34;57.45
34205;BME280;20471;49.680;20.074;2023-08-21T12:09:57;97713.92;;;30.50;56.65
34205;BME280;20471;49.680;20.074;2023-08-21T12:12:25;97716.50;;;30.64;56.41
34205;BME280;20471;49.680;20.074;2023-08-21T12:14:53;97714.69;;;30.72;55.83
34205;BME280;20471;49.680;20.074;2023-08-21T12:17:20;97710.86;;;30.79;56.27
34205;BME280;20471;49.680;20.074;2023-08-21T12:19:48;97710.73;;;30.90;55.96
34205;BME280;20471;49.680;20.074;2023-08-21T12:22:16;97708.45;;;31.00;55.07
34205;BME280;20471;49.680;20.074;2023-08-21T12:24:43;97704.05;;;31.01;53.92
34205;BME280;20471;49.680;20.074;2023-08-21T12:27:11;97700.72;;;31.00;54.14
34205;BME280;20471;49.680;20.074;2023-08-21T12:29:39;97702.17;;;31.10;54.77
34205;BME280;20471;49.680;20.074;2023-08-21T12:32:06;97695.77;;;31.28;55.07
34205;BME280;20471;49.680;20.074;2023-08-21T12:34:34;97698.55;;;31.42;54.04
34205;BME280;20471;49.680;20.074;2023-08-21T12:37:02;97695.97;;;31.51;52.99
34205;BME280;20471;49.680;20.074;2023-08-21T12:39:30;97695.98;;;31.54;51.87
34205;BME280;20471;49.680;20.074;2023-08-21T12:41:57;97696.21;;;31.59;51.46
34205;BME280;20471;49.680;20.074;2023-08-21T12:44:25;97695.58;;;31.67;50.53
34205;BME280;20471;49.680;20.074;2023-08-21T12:46:53;97698.92;;;31.78;51.15
34205;BME280;20471;49.680;20.074;2023-08-21T12:49:20;97693.22;;;31.81;51.38
34205;BME280;20471;49.680;20.074;2023-08-21T12:51:48;97690.75;;;31.66;50.76
34205;BME280;20471;49.680;20.074;2023-08-21T12:54:16;97687.11;;;31.57;50.91
34205;BME280;20471;49.680;20.074;2023-08-21T12:56:43;97682.73;;;31.63;51.18
34205;BME280;20471;49.680;20.074;2023-08-21T12:59:15;97686.09;;;31.71;51.65
34205;BME280;20471;49.680;20.074;2023-08-21T13:01:42;97679.73;;;31.82;51.19
34205;BME280;20471;49.680;20.074;2023-08-21T13:04:10;97671.81;;;31.82;50.25
34205;BME280;20471;49.680;20.074;2023-08-21T13:06:38;97673.05;;;31.72;51.25
34205;BME280;20471;49.680;20.074;2023-08-21T13:09:05;97669.59;;;31.69;51.23
34205;BME280;20471;49.680;20.074;2023-08-21T13:11:33;97664.94;;;31.69;50.50
34205;BME280;20471;49.680;20.074;2023-08-21T13:14:01;97667.22;;;31.62;50.61
34205;BME280;20471;49.680;20.074;2023-08-21T13:16:28;97665.55;;;31.56;51.04
34205;BME280;20471;49.680;20.074;2023-08-21T13:18:56;97664.85;;;31.46;51.20
34205;BME280;20471;49.680;20.074;2023-08-21T13:21:24;97662.04;;;31.33;51.26
34205;BME280;20471;49.680;20.074;2023-08-21T13:23:51;97665.42;;;31.19;51.51
34205;BME280;20471;49.680;20.074;2023-08-21T13:26:20;97668.00;;;31.08;51.91
34205;BME280;20471;49.680;20.074;2023-08-21T13:28:48;97669.70;;;30.93;52.47
34205;BME280;20471;49.680;20.074;2023-08-21T13:31:15;97666.20;;;30.81;52.42
34205;BME280;20471;49.680;20.074;2023-08-21T13:33:45;97663.05;;;30.74;52.31
34205;BME280;20471;49.680;20.074;2023-08-21T13:36:13;97662.57;;;30.67;52.25
34205;BME280;20471;49.680;20.074;2023-08-21T13:38:42;97662.02;;;30.59;52.11
34205;BME280;20471;49.680;20.074;2023-08-21T13:41:10;97659.87;;;30.50;52.16
34205;BME280;20471;49.680;20.074;2023-08-21T13:43:38;97656.04;;;30.42;52.72
34205;BME280;20471;49.680;20.074;2023-08-21T13:46:06;97653.36;;;30.33;53.13
34205;BME280;20471;49.680;20.074;2023-08-21T13:48:34;97652.77;;;30.25;53.85
34205;BME280;20471;49.680;20.074;2023-08-21T13:51:01;97651.27;;;30.16;54.21
34205;BME280;20471;49.680;20.074;2023-08-21T13:53:29;97652.43;;;30.06;54.06
34205;BME280;20471;49.680;20.074;2023-08-21T13:55:57;97653.89;;;29.99;54.13
34205;BME280;20471;49.680;20.074;2023-08-21T13:58:25;97655.89;;;29.94;54.82
34205;BME280;20471;49.680;20.074;2023-08-21T14:00:53;97656.51;;;29.87;55.14
34205;BME280;20471;49.680;20.074;2023-08-21T14:03:22;97650.98;;;29.79;54.98
34205;BME280;20471;49.680;20.074;2023-08-21T14:05:51;97646.61;;;29.72;54.57
34205;BME280;20471;49.680;20.074;2023-08-21T14:08:18;97642.35;;;29.65;55.29
34205;BME280;20471;49.680;20.074;2023-08-21T14:10:46;97637.52;;;29.58;55.42
34205;BME280;20471;49.680;20.074;2023-08-21T14:13:14;97634.54;;;29.51;55.81
34205;BME280;20471;49.680;20.074;2023-08-21T14:15:41;97631.83;;;29.44;55.55
34205;BME280;20471;49.680;20.074;2023-08-21T14:18:09;97633.16;;;29.38;55.75
34205;BME280;20471;49.680;20.074;2023-08-21T14:20:37;97632.65;;;29.34;56.07
34205;BME280;20471;49.680;20.074;2023-08-21T14:23:05;97631.61;;;29.31;56.29
34205;BME280;20471;49.680;20.074;2023-08-21T14:25:33;97627.16;;;29.22;57.32
34205;BME280;20471;49.680;20.074;2023-08-21T14:28:01;97623.98;;;29.14;57.80
34205;BME280;20471;49.680;20.074;2023-08-21T14:30:29;97623.46;;;29.09;57.69
34205;BME280;20471;49.680;20.074;2023-08-21T14:32:56;97620.48;;;29.07;57.88
34205;BME280;20471;49.680;20.074;2023-08-21T14:35:24;97616.42;;;29.03;58.06
34205;BME280;20471;49.680;20.074;2023-08-21T14:37:52;97611.59;;;28.99;58.87
34205;BME280;20471;49.680;20.074;2023-08-21T14:40:19;97609.66;;;28.97;58.79
34205;BME280;20471;49.680;20.074;2023-08-21T14:42:47;97603.48;;;29.04;59.05
34205;BME280;20471;49.680;20.074;2023-08-21T14:45:15;97601.71;;;29.20;58.60
34205;BME280;20471;49.680;20.074;2023-08-21T14:47:43;97604.69;;;29.36;58.11
34205;BME280;20471;49.680;20.074;2023-08-21T14:50:10;97602.48;;;29.52;57.83
34205;BME280;20471;49.680;20.074;2023-08-21T14:52:38;97600.65;;;29.66;57.67
34205;BME280;20471;49.680;20.074;2023-08-21T14:55:06;97600.48;;;29.78;56.81
34205;BME280;20471;49.680;20.074;2023-08-21T14:57:34;97602.04;;;29.83;56.63
34205;BME280;20471;49.680;20.074;2023-08-21T15:00:02;97602.24;;;29.94;56.82
34205;BME280;20471;49.680;20.074;2023-08-21T15:02:31;97606.48;;;30.00;57.00
34205;BME280;20471;49.680;20.074;2023-08-21T15:05:02;97600.10;;;30.08;56.85
34205;BME280;20471;49.680;20.074;2023-08-21T15:07:31;97594.11;;;30.15;55.89
34205;BME280;20471;49.680;20.074;2023-08-21T15:09:59;97596.27;;;30.19;56.34
34205;BME280;20471;49.680;20.074;2023-08-21T15:12:26;97597.84;;;30.26;56.01
34205;BME280;20471;49.680;20.074;2023-08-21T15:14:54;97595.79;;;30.32;55.47
34205;BME280;20471;49.680;20.074;2023-08-21T15:17:22;97596.39;;;30.39;54.99
34205;BME280;20471;49.680;20.074;2023-08-21T15:19:49;97594.50;;;30.37;54.78
34205;BME280;20471;49.680;20.074;2023-08-21T15:22:17;97592.43;;;30.37;55.30
34205;BME280;20471;49.680;20.074;2023-08-21T15:24:47;97589.23;;;30.37;55.57
34205;BME280;20471;49.680;20.074;2023-08-21T15:27:15;97588.66;;;30.35;55.82
34205;BME280;20471;49.680;20.074;2023-08-21T15:29:43;97587.20;;;30.32;55.90
34205;BME280;20471;49.680;20.074;2023-08-21T15:32:11;97587.44;;;30.30;55.52
34205;BME280;20471;49.680;20.074;2023-08-21T15:34:39;97588.88;;;30.31;55.32
34205;BME280;20471;49.680;20.074;2023-08-21T15:37:06;97589.69;;;30.31;55.16
34205;BME280;20471;49.680;20.074;2023-08-21T15:39:34;97587.36;;;30.30;55.14
34205;BME280;20471;49.680;20.074;2023-08-21T15:42:02;97585.50;;;30.28;54.89
34205;BME280;20471;49.680;20.074;2023-08-21T15:44:30;97586.70;;;30.24;55.13
34205;BME280;20471;49.680;20.074;2023-08-21T15:46:58;97582.07;;;30.20;55.56
34205;BME280;20471;49.680;20.074;2023-08-21T15:49:25;97580.13;;;30.15;55.32
34205;BME280;20471;49.680;20.074;2023-08-21T15:51:53;97579.75;;;30.10;55.12
34205;BME280;20471;49.680;20.074;2023-08-21T15:54:30;97580.14;;;30.05;55.06
34205;BME280;20471;49.680;20.074;2023-08-21T15:57:00;97575.80;;;30.03;55.55